createdAt,value
2023-04-25T00:03:28.569Z,0.00
2023-04-25T00:08:28.286Z,0.00
2023-04-25T00:13:28.909Z,0.00
2023-04-25T00:18:28.316Z,0.00
2023-04-25T00:23:28.108Z,0.00
2023-04-25T00:28:31.133Z,0.00
2023-04-25T00:33:28.104Z,0.00
2023-04-25T00:38:27.873Z,0.00
2023-04-25T00:43:27.813Z,0.00
2023-04-25T00:48:27.769Z,0.00
2023-04-25T00:53:27.653Z,0.00
2023-04-25T00:58:27.647Z,0.00
2023-04-25T01:03:27.835Z,0.00
2023-04-25T01:08:27.577Z,0.00
2023-04-25T01:13:27.458Z,0.00
2023-04-25T01:18:27.543Z,0.00
2023-04-25T01:23:27.366Z,0.00
2023-04-25T01:28:30.255Z,0.00
2023-04-25T01:33:27.172Z,0.00
2023-04-25T01:38:27.152Z,0.00
2023-04-25T01:43:34.521Z,0.00
2023-04-25T01:48:26.980Z,0.00
2023-04-25T01:53:26.938Z,0.00
2023-04-25T01:58:26.869Z,0.00
2023-04-25T02:03:26.968Z,0.00
2023-04-25T02:08:26.718Z,0.00
2023-04-25T02:13:26.668Z,0.00
2023-04-25T02:18:26.623Z,0.00
2023-04-25T02:23:26.773Z,0.00
2023-04-25T02:28:29.490Z,0.00
2023-04-25T02:33:26.386Z,0.00
2023-04-25T02:38:26.367Z,0.00
2023-04-25T02:44:37.087Z,0.00
2023-04-25T02:49:37.088Z,0.00
2023-04-25T02:54:37.103Z,0.00
2023-04-25T02:59:36.978Z,0.00
2023-04-25T03:04:36.951Z,0.00
2023-04-25T03:09:36.883Z,0.00
2023-04-25T03:14:36.719Z,0.00
2023-04-25T03:19:36.623Z,0.00
2023-04-25T03:24:37.738Z,0.00
2023-04-25T03:29:36.637Z,0.00
2023-04-25T03:34:39.500Z,0.00
2023-04-25T03:39:36.407Z,0.00
2023-04-25T03:44:36.568Z,0.00
2023-04-25T03:49:36.246Z,5.62
2023-04-25T03:54:36.428Z,5.62
2023-04-25T03:59:36.105Z,11.25
2023-04-25T04:04:36.316Z,22.50
2023-04-25T04:09:35.978Z,33.75
2023-04-25T04:14:43.544Z,50.62
2023-04-25T04:19:35.899Z,84.38
2023-04-25T04:24:35.820Z,101.25
2023-04-25T04:29:35.731Z,118.12
2023-04-25T04:34:38.731Z,191.25
2023-04-25T04:39:35.688Z,230.62
2023-04-25T04:44:35.540Z,264.38
2023-04-25T04:49:35.516Z,253.12
2023-04-25T04:54:35.499Z,399.38
2023-04-25T04:59:35.324Z,208.12
2023-04-25T05:04:35.456Z,495.00
2023-04-25T05:09:35.286Z,528.75
2023-04-25T05:14:35.210Z,568.12
2023-04-25T05:19:35.060Z,286.88
2023-04-25T05:24:35.219Z,703.12
2023-04-25T05:29:34.979Z,866.25
2023-04-25T05:34:38.156Z,1018.12
2023-04-25T05:39:34.871Z,810.00
2023-04-25T05:44:34.966Z,905.62
2023-04-25T05:49:34.684Z,1057.50
2023-04-25T05:54:34.669Z,1085.62
2023-04-25T05:59:34.554Z,1288.12
2023-04-25T06:04:34.891Z,585.00
2023-04-25T06:09:34.369Z,781.88
2023-04-25T06:14:34.353Z,534.38
2023-04-25T06:19:34.281Z,725.62
2023-04-25T06:24:34.291Z,1946.25
2023-04-25T06:29:34.138Z,613.12
2023-04-25T06:34:37.177Z,388.12
2023-04-25T06:39:34.004Z,500.62
2023-04-25T06:44:41.848Z,466.88
2023-04-25T06:49:34.078Z,517.50
2023-04-25T06:54:33.850Z,489.38
2023-04-25T06:59:33.774Z,309.38
2023-04-25T07:04:33.954Z,320.62
2023-04-25T07:09:33.736Z,365.62
2023-04-25T07:14:33.585Z,393.75
2023-04-25T07:19:33.464Z,376.88
2023-04-25T07:24:33.521Z,388.12
2023-04-25T07:29:33.366Z,410.62
2023-04-25T07:34:36.509Z,495.00
2023-04-25T07:39:33.206Z,568.12
2023-04-25T07:44:33.182Z,545.62
2023-04-25T07:49:33.097Z,613.12
2023-04-25T07:54:33.166Z,691.88
2023-04-25T07:59:33.052Z,748.12
2023-04-25T08:04:33.201Z,663.75
2023-04-25T08:09:32.903Z,466.88
2023-04-25T08:14:32.781Z,393.75
2023-04-25T08:19:32.666Z,410.62
2023-04-25T08:24:32.722Z,371.25
2023-04-25T08:29:32.696Z,315.00
2023-04-25T08:34:35.563Z,331.88
2023-04-25T08:39:32.396Z,320.62
2023-04-25T08:44:32.732Z,388.12
2023-04-25T08:49:32.273Z,292.50
2023-04-25T08:54:35.256Z,326.25
2023-04-25T08:59:32.367Z,303.75
2023-04-25T09:04:32.827Z,354.38
2023-04-25T09:09:32.015Z,483.75
2023-04-25T09:14:32.114Z,815.62
2023-04-25T09:19:40.211Z,1057.50
2023-04-25T09:24:32.931Z,1012.50
2023-04-25T09:29:31.837Z,686.25
2023-04-25T09:34:34.720Z,663.75
2023-04-25T09:39:31.642Z,624.38
2023-04-25T09:44:31.604Z,483.75
2023-04-25T09:49:31.497Z,658.12
2023-04-25T09:54:31.483Z,770.62
2023-04-25T09:59:31.354Z,894.38
2023-04-25T10:04:32.822Z,545.62
2023-04-25T10:09:31.332Z,455.62
2023-04-25T10:14:31.830Z,551.25
2023-04-25T10:19:31.109Z,579.38
2023-04-25T10:24:31.174Z,635.62
2023-04-25T10:29:30.962Z,618.75
2023-04-25T10:34:34.142Z,765.00
2023-04-25T10:39:30.907Z,900.00
2023-04-25T10:44:30.794Z,900.00
2023-04-25T10:49:30.789Z,883.12
2023-04-25T10:54:30.836Z,978.75
2023-04-25T10:59:30.602Z,916.88
2023-04-25T11:04:30.917Z,1012.50
2023-04-25T11:09:30.452Z,995.62
2023-04-25T11:14:30.910Z,995.62
2023-04-25T11:19:30.311Z,1012.50
2023-04-25T11:24:30.907Z,967.50
2023-04-25T11:29:30.251Z,922.50
2023-04-25T11:34:33.168Z,905.62
2023-04-25T11:39:30.078Z,646.88
2023-04-25T11:44:30.046Z,725.62
2023-04-25T11:49:37.467Z,826.88
2023-04-25T11:54:29.983Z,888.75
2023-04-25T11:59:29.884Z,922.50
2023-04-25T12:04:30.125Z,894.38
2023-04-25T12:09:29.790Z,849.38
2023-04-25T12:14:29.609Z,877.50
2023-04-25T12:19:30.320Z,900.00
2023-04-25T12:24:29.503Z,725.62
2023-04-25T12:29:34.629Z,933.75
2023-04-25T12:34:33.538Z,894.38
2023-04-25T12:39:29.273Z,348.75
2023-04-25T12:44:29.231Z,264.38
2023-04-25T12:49:29.136Z,196.88
2023-04-25T12:54:29.165Z,427.50
2023-04-25T12:59:29.020Z,534.38
2023-04-25T13:04:29.417Z,680.62
2023-04-25T13:09:28.911Z,703.12
2023-04-25T13:14:28.878Z,511.88
2023-04-25T13:19:28.772Z,444.38
2023-04-25T13:24:29.366Z,517.50
2023-04-25T13:29:28.593Z,607.50
2023-04-25T13:34:31.754Z,821.25
2023-04-25T13:39:28.458Z,630.00
2023-04-25T13:44:28.443Z,590.62
2023-04-25T13:49:28.365Z,686.25
2023-04-25T13:54:28.399Z,720.00
2023-04-25T13:59:28.214Z,663.75
2023-04-25T14:04:28.327Z,585.00
2023-04-25T14:09:28.077Z,669.38
2023-04-25T14:14:28.123Z,686.25
2023-04-25T14:19:27.927Z,652.50
2023-04-25T14:24:35.826Z,472.50
2023-04-25T14:29:27.793Z,511.88
2023-04-25T14:34:30.828Z,703.12
2023-04-25T14:39:27.680Z,556.88
2023-04-25T14:44:27.737Z,534.38
2023-04-25T14:49:27.615Z,601.88
2023-04-25T14:54:27.632Z,292.50
2023-04-25T14:59:27.415Z,376.88
2023-04-25T15:04:27.698Z,393.75
2023-04-25T15:09:27.286Z,405.00
2023-04-25T15:14:27.282Z,444.38
2023-04-25T15:19:27.155Z,444.38
2023-04-25T15:24:27.126Z,399.38
2023-04-25T15:29:27.136Z,472.50
2023-04-25T15:34:30.181Z,528.75
2023-04-25T15:39:26.922Z,472.50
2023-04-25T15:44:27.044Z,382.50
2023-04-25T15:49:26.806Z,281.25
2023-04-25T15:54:26.778Z,275.62
2023-04-25T15:59:26.711Z,348.75
2023-04-25T16:04:26.806Z,354.38
2023-04-25T16:09:26.536Z,326.25
2023-04-25T16:14:26.482Z,253.12
2023-04-25T16:19:26.371Z,230.62
2023-04-25T16:24:26.321Z,292.50
2023-04-25T16:29:26.313Z,281.25
2023-04-25T16:34:29.200Z,270.00
2023-04-25T16:39:26.150Z,230.62
2023-04-25T16:44:26.071Z,191.25
2023-04-25T16:49:25.967Z,180.00
2023-04-25T16:54:25.927Z,202.50
2023-04-25T16:59:25.879Z,208.12
2023-04-25T17:04:26.412Z,168.75
2023-04-25T17:09:27.146Z,151.88
2023-04-25T17:14:25.742Z,129.38
2023-04-25T17:19:25.669Z,112.50
2023-04-25T17:24:25.644Z,101.25
2023-04-25T17:29:25.460Z,90.00
2023-04-25T17:34:28.503Z,84.38
2023-04-25T17:39:25.445Z,90.00
2023-04-25T17:44:25.367Z,78.75
2023-04-25T17:49:25.168Z,84.38
2023-04-25T17:54:25.255Z,67.50
2023-04-25T17:59:25.239Z,50.62
2023-04-25T18:04:25.136Z,39.38
2023-04-25T18:09:24.992Z,28.12
2023-04-25T18:14:25.909Z,22.50
2023-04-25T18:19:24.924Z,16.88
2023-04-25T18:24:24.858Z,11.25
2023-04-25T18:29:33.092Z,5.62
2023-04-25T18:34:28.745Z,0.00
2023-04-25T18:39:24.837Z,0.00
2023-04-25T18:44:24.546Z,0.00
2023-04-25T18:49:24.436Z,0.00
2023-04-25T18:54:24.433Z,0.00
2023-04-25T18:59:24.365Z,0.00
2023-04-25T19:04:24.446Z,0.00
2023-04-25T19:09:24.137Z,0.00
2023-04-25T19:14:24.106Z,0.00
2023-04-25T19:19:24.089Z,0.00
2023-04-25T19:25:53.733Z,0.00
2023-04-25T19:30:53.385Z,0.00
2023-04-25T19:35:53.284Z,0.00
2023-04-25T19:40:53.211Z,0.00
2023-04-25T19:45:53.282Z,0.00
2023-04-25T19:50:53.225Z,0.00
2023-04-25T19:55:53.032Z,0.00
2023-04-25T20:00:53.172Z,0.00
2023-04-25T20:05:52.947Z,0.00
2023-04-25T20:10:52.817Z,0.00
2023-04-25T20:15:55.873Z,0.00
2023-04-25T20:20:52.692Z,0.00
2023-04-25T20:25:52.665Z,0.00
2023-04-25T20:30:52.542Z,0.00
2023-04-25T20:35:53.165Z,0.00
2023-04-25T20:40:52.490Z,0.00
2023-04-25T20:45:52.567Z,0.00
2023-04-25T20:50:52.378Z,0.00
2023-04-25T20:55:52.588Z,0.00
2023-04-25T21:00:52.300Z,0.00
2023-04-25T21:05:52.120Z,0.00
2023-04-25T21:11:00.409Z,0.00
2023-04-25T21:16:02.292Z,0.00
2023-04-25T21:20:59.435Z,0.00
2023-04-25T21:26:00.293Z,0.00
2023-04-25T21:30:51.878Z,0.00
2023-04-25T21:35:51.824Z,0.00
2023-04-25T21:40:51.643Z,0.00
2023-04-25T21:50:52.632Z,0.00
2023-04-25T21:55:51.475Z,0.00
2023-04-25T22:00:51.483Z,0.00
2023-04-25T22:05:51.313Z,0.00
2023-04-25T22:10:51.326Z,0.00
2023-04-25T22:15:54.447Z,0.00
2023-04-25T22:20:51.225Z,0.00
2023-04-25T22:25:51.179Z,0.00
2023-04-25T22:30:51.074Z,0.00
2023-04-25T22:35:51.035Z,0.00
2023-04-25T22:40:50.877Z,0.00
2023-04-25T22:45:50.899Z,0.00
2023-04-25T22:50:50.751Z,0.00
2023-04-25T22:55:50.808Z,0.00
2023-04-25T23:00:50.650Z,0.00
2023-04-25T23:05:50.631Z,0.00
2023-04-25T23:10:50.509Z,0.00
2023-04-25T23:15:53.513Z,0.00
2023-04-25T23:20:50.361Z,0.00
2023-04-25T23:25:50.406Z,0.00
2023-04-25T23:30:50.242Z,0.00
2023-04-25T23:35:50.200Z,0.00
2023-04-25T23:40:50.227Z,0.00
2023-04-25T23:45:50.115Z,0.00
2023-04-25T23:50:49.954Z,0.00
2023-04-25T23:55:50.046Z,0.00
